Time;durP1;ratioP1;P1;durP2;ratioP2;P2;SDS_P1;SDS_P2;PMS_P1;PMS_P2;Temp;Humidity;BMP_temperature;BMP_pressure;BME280_temperature;BME280_humidity;BME280_pressure;Samples;Min_cycle;Max_cycle;Signal;HPM_P1;HPM_P2
2022/08/19 00:02:22;;;;;;;;;;;;;;;;;;5074331;28;1473;-75
2022/08/19 00:04:52;;;;;;;;;;;;;;;;;;5082566;28;1478;-75
2022/08/19 00:07:18;;;;;;;;;;;;;;;;;;5073810;28;1978;-76
2022/08/19 00:09:44;;;;;;;;;;;;;;;;;;5074678;28;1463;-76
2022/08/19 00:12:11;;;;;;;;;;;;;;;;;;5084336;28;1501;-74
2022/08/19 00:14:37;;;;;;;;;;;;;;;;;;5080819;28;1385;-75
2022/08/19 00:17:04;;;;;;;;;;;;;;;;;;5082407;28;1423;-75
2022/08/19 00:19:31;;;;;;;;;;;;;;;;;;5087728;28;1479;-74
2022/08/19 00:21:58;;;;;;;;;;;;;;;;;;5090225;28;1138;-76
2022/08/19 00:24:25;;;;;;;;;;;;;;;;;;5093713;28;1308;-74
2022/08/19 00:26:51;;;;;;;;;;;;;;;;;;5075327;28;1910;-74
2022/08/19 00:29:18;;;;;;;;;;;;;;;;;;5084737;28;1511;-76
2022/08/19 00:31:45;;;;;;;;;;;;;;;;;;5078616;28;1534;-75
2022/08/19 00:34:11;;;;;;;;;;;;;;;;;;5082682;28;1447;-74
2022/08/19 00:36:37;;;;;;;;;;;;;;;;;;5080771;28;1356;-74
2022/08/19 00:39:05;;;;;;;;;;;;;;;;;;5086377;28;1432;-74
2022/08/19 00:41:31;;;;;;;;;;;;;;;;;;5080874;28;1341;-75
2022/08/19 00:43:58;;;;;;;;;;;;;;;;;;5078767;28;1815;-75
2022/08/19 00:46:24;;;;;;;;;;;;;;;;;;5084318;28;1921;-74
2022/08/19 00:48:50;;;;;;;;;;;;;;;;;;5084364;28;1422;-76
2022/08/19 00:51:17;;;;;;;;;;;;;;;;;;5073062;28;1181;-74
2022/08/19 00:53:43;;;;;;;;;;;;;;;;;;5072814;28;1280;-74
2022/08/19 00:56:11;;;;;;;;;;;;;;;;;;5072763;28;1055;-75
2022/08/19 00:58:37;;;;;;;;;;;;;;;;;;5075868;28;1451;-74
2022/08/19 01:01:04;;;;;;;;;;;;;;;;;;5062994;28;1388;-75
2022/08/19 01:03:30;;;;;;;;;;;;;;;;;;5066976;28;1398;-76
2022/08/19 01:05:56;;;;;;;;;;;;;;;;;;5083799;28;1902;-75
2022/08/19 01:08:22;;;;;;;;;;;;;;;;;;5062128;28;1417;-76
2022/08/19 01:10:50;;;;;;;;;;;;;;;;;;5061298;28;1456;-76
2022/08/19 01:13:18;;;;;;;;;;;;;;;;;;5079730;28;1432;-75
2022/08/19 01:15:45;;;;;;;;;;;;;;;;;;5080712;28;1434;-75
2022/08/19 01:18:13;;;;;;;;;;;;;;;;;;5077000;28;1416;-75
2022/08/19 01:20:39;;;;;;;;;;;;;;;;;;5084267;28;1426;-75
2022/08/19 01:23:06;;;;;;;;;;;;;;;;;;5061853;28;1431;-75
2022/08/19 01:25:34;;;;;;;;;;;;;;;;;;5078018;28;1922;-75
2022/08/19 01:28:00;;;;;;;;;;;;;;;;;;5073905;28;1391;-77
2022/08/19 01:30:27;;;;;;;;;;;;;;;;;;5077742;28;1431;-76
2022/08/19 01:32:54;;;;;;;;;;;;;;;;;;5092174;28;1072;-75
2022/08/19 01:35:20;;;;;;;;;;;;;;;;;;5091643;28;1407;-77
2022/08/19 01:37:48;;;;;;;;;;;;;;;;;;5081064;28;1605;-77
2022/08/19 01:40:15;;;;;;;;;;;;;;;;;;5087418;28;1500;-75
2022/08/19 01:42:41;;;;;;;;;;;;;;;;;;5086934;28;1205;-73
2022/08/19 01:45:08;;;;;;;;;;;;;;;;;;5081357;28;1436;-75
2022/08/19 01:47:34;;;;;;;;;;;;;;;;;;5082350;28;1914;-75
2022/08/19 01:50:01;;;;;;;;;;;;;;;;;;5063524;28;1369;-74
2022/08/19 01:52:27;;;;;;;;;;;;;;;;;;5079204;28;1404;-73
2022/08/19 01:54:53;;;;;;;;;;;;;;;;;;5080020;28;1359;-73
2022/08/19 01:57:21;;;;;;;;;;;;;;;;;;5074391;28;1410;-74
2022/08/19 01:59:47;;;;;;;;;;;;;;;;;;5084424;28;1399;-73
2022/08/19 02:02:13;;;;;;;;;;;;;;;;;;5079726;28;1360;-74
2022/08/19 02:04:40;;;;;;;;;;;;;;;;;;5079724;28;1371;-75
2022/08/19 02:07:07;;;;;;;;;;;;;;;;;;5077286;28;1969;-74
2022/08/19 02:09:34;;;;;;;;;;;;;;;;;;5087202;28;1473;-75
2022/08/19 02:12:00;;;;;;;;;;;;;;;;;;5080700;28;1428;-73
2022/08/19 02:17:05;;;;;;;;;;;;;;;;;;5022605;28;2792;-73
2022/08/19 02:19:32;;;;;;;;;;;;;;;;;;5019084;28;1451;-72
2022/08/19 02:21:59;;;;;;;;;;;;;;;;;;5027280;28;1357;-72
2022/08/19 02:24:25;;;;;;;;;;;;;;;;;;5029580;28;1470;-72
2022/08/19 02:26:51;;;;;;;;;;;;;;;;;;5029928;28;1918;-72
2022/08/19 02:29:18;;;;;;;;;;;;;;;;;;5030450;28;1436;-72
2022/08/19 02:31:46;;;;;;;;;;;;;;;;;;5029059;28;1539;-72
2022/08/19 02:34:13;;;;;;;;;;;;;;;;;;5030916;28;1194;-71
2022/08/19 02:36:39;;;;;;;;;;;;;;;;;;5024469;28;1735;-72
2022/08/19 02:39:05;;;;;;;;;;;;;;;;;;5028559;28;1099;-72
2022/08/19 02:41:32;;;;;;;;;;;;;;;;;;5028318;28;1091;-73
2022/08/19 02:44:00;;;;;;;;;;;;;;;;;;5028090;28;1099;-72
2022/08/19 02:46:28;;;;;;;;;;;;;;;;;;5028773;28;1915;-72
2022/08/19 02:48:55;;;;;;;;;;;;;;;;;;5028404;28;949;-72
2022/08/19 02:51:23;;;;;;;;;;;;;;;;;;5028617;28;1075;-72
2022/08/19 02:53:49;;;;;;;;;;;;;;;;;;5027397;28;1546;-72
2022/08/19 02:56:15;;;;;;;;;;;;;;;;;;5030463;28;1484;-72
2022/08/19 02:58:42;;;;;;;;;;;;;;;;;;5029857;28;1139;-72
2022/08/19 03:01:09;;;;;;;;;;;;;;;;;;5028407;28;1172;-72
2022/08/19 03:03:36;;;;;;;;;;;;;;;;;;5029374;28;890;-72
2022/08/19 03:06:06;;;;;;;;;;;;;;;;;;5030293;28;1915;-72
2022/08/19 03:08:34;;;;;;;;;;;;;;;;;;5030031;28;1440;-72
2022/08/19 03:11:00;;;;;;;;;;;;;;;;;;5030480;28;1139;-72
2022/08/19 03:13:26;;;;;;;;;;;;;;;;;;5030189;28;1262;-72
2022/08/19 03:15:52;;;;;;;;;;;;;;;;;;5037399;28;1536;-72
2022/08/19 03:18:18;;;;;;;;;;;;;;;;;;5041093;28;1427;-72
2022/08/19 03:20:45;;;;;;;;;;;;;;;;;;5042344;28;1157;-71
2022/08/19 03:23:12;;;;;;;;;;;;;;;;;;5049372;28;1467;-71
2022/08/19 03:25:43;;;;;;;;;;;;;;;;;;5050285;28;1353;-72
2022/08/19 03:28:09;;;;;;;;;;;;;;;;;;5051494;28;1925;-72
2022/08/19 03:30:35;;;;;;;;;;;;;;;;;;5054440;28;866;-71
2022/08/19 03:33:01;;;;;;;;;;;;;;;;;;5054015;28;1189;-72
2022/08/19 03:35:27;;;;;;;;;;;;;;;;;;5054501;28;1357;-72
2022/08/19 03:37:54;;;;;;;;;;;;;;;;;;5054256;28;1066;-71
2022/08/19 03:40:20;;;;;;;;;;;;;;;;;;5045629;28;1449;-72
2022/08/19 03:42:47;;;;;;;;;;;;;;;;;;5053857;28;1193;-73
2022/08/19 03:45:14;;;;;;;;;;;;;;;;;;5054183;28;1255;-74
2022/08/19 03:47:40;;;;;;;;;;;;;;;;;;5054310;28;1973;-73
2022/08/19 03:50:06;;;;;;;;;;;;;;;;;;5051514;28;1430;-71
2022/08/19 03:52:32;;;;;;;;;;;;;;;;;;5046933;28;1143;-73
2022/08/19 03:54:58;;;;;;;;;;;;;;;;;;5052420;28;1379;-71
2022/08/19 03:57:25;;;;;;;;;;;;;;;;;;5052667;28;1272;-74
2022/08/19 03:59:52;;;;;;;;;;;;;;;;;;5053826;28;968;-73
2022/08/19 04:02:18;;;;;;;;;;;;;;;;;;5053612;28;1067;-74
2022/08/19 04:04:44;;;;;;;;;;;;;;;;;;5054066;28;1328;-73
2022/08/19 04:07:12;;;;;;;;;;;;;;;;;;5053543;28;1914;-74
2022/08/19 04:09:38;;;;;;;;;;;;;;;;;;5053678;28;1399;-73
2022/08/19 04:12:05;;;;;;;;;;;;;;;;;;5045643;28;1482;-71
2022/08/19 04:14:32;;;;;;;;;;;;;;;;;;5056145;28;1632;-73
2022/08/19 04:17:00;;;;;;;;;;;;;;;;;;5051854;28;1245;-73
2022/08/19 04:19:26;;;;;;;;;;;;;;;;;;5043534;28;1609;-71
2022/08/19 04:21:53;;;;;;;;;;;;;;;;;;5051801;28;1182;-71
2022/08/19 04:24:19;;;;;;;;;;;;;;;;;;5053456;28;1076;-73
2022/08/19 04:26:46;;;;;;;;;;;;;;;;;;5053258;28;1922;-73
2022/08/19 04:29:13;;;;;;;;;;;;;;;;;;5053498;28;1020;-74
2022/08/19 04:31:40;;;;;;;;;;;;;;;;;;5052734;28;1079;-73
2022/08/19 04:34:10;;;;;;;;;;;;;;;;;;5053468;28;1063;-73
2022/08/19 04:36:36;;;;;;;;;;;;;;;;;;5052003;28;1459;-73
2022/08/19 04:39:03;;;;;;;;;;;;;;;;;;5055172;28;1415;-71
2022/08/19 04:44:14;;;;;;;;;;;;;;;;;;5043090;28;1430;-71
2022/08/19 04:46:40;;;;;;;;;;;;;;;;;;5052323;28;1910;-73
2022/08/19 04:49:08;;;;;;;;;;;;;;;;;;5044625;28;1134;-71
2022/08/19 04:51:34;;;;;;;;;;;;;;;;;;5046544;28;1585;-70
2022/08/19 04:54:01;;;;;;;;;;;;;;;;;;5047350;28;1328;-70
2022/08/19 04:56:28;;;;;;;;;;;;;;;;;;5052921;28;1388;-73
2022/08/19 04:58:54;;;;;;;;;;;;;;;;;;5052911;28;1054;-73
2022/08/19 05:01:21;;;;;;;;;;;;;;;;;;5052822;28;1003;-70
2022/08/19 05:03:48;;;;;;;;;;;;;;;;;;5051653;28;1112;-73
2022/08/19 05:06:16;;;;;;;;;;;;;;;;;;5051645;28;1455;-73
2022/08/19 05:08:43;;;;;;;;;;;;;;;;;;5052910;28;1918;-73
2022/08/19 05:11:10;;;;;;;;;;;;;;;;;;5052904;28;889;-70
2022/08/19 05:13:37;;;;;;;;;;;;;;;;;;5052383;28;1116;-70
2022/08/19 05:16:03;;;;;;;;;;;;;;;;;;5064217;28;1251;-73
2022/08/19 05:23:59;;;;;;;;;;;;;;;;;;5072489;28;865;-72
2022/08/19 05:26:26;;;;;;;;;;;;;;;;;;5072535;28;1360;-73
2022/08/19 05:28:52;;;;;;;;;;;;;;;;;;5072351;28;1976;-72
2022/08/19 05:31:18;;;;;;;;;;;;;;;;;;5072079;28;1119;-72
2022/08/19 05:33:44;;;;;;;;;;;;;;;;;;5072721;28;1063;-72
2022/08/19 05:36:11;;;;;;;;;;;;;;;;;;5071490;28;1447;-72
2022/08/19 05:38:37;;;;;;;;;;;;;;;;;;5049830;28;1645;-72
2022/08/19 05:41:08;;;;;;;;;;;;;;;;;;5051155;28;1474;-75
2022/08/19 05:43:34;;;;;;;;;;;;;;;;;;5052141;28;1384;-75
2022/08/19 05:46:00;;;;;;;;;;;;;;;;;;5061371;28;1490;-75
2022/08/19 05:48:26;;;;;;;;;;;;;;;;;;5039687;28;1994;-75
2022/08/19 05:50:53;;;;;;;;;;;;;;;;;;5052549;28;1554;-74
2022/08/19 05:53:19;;;;;;;;;;;;;;;;;;5071468;28;1383;-75
2022/08/19 05:55:45;;;;;;;;;;;;;;;;;;5064195;28;1400;-75
2022/08/19 05:58:13;;;;;;;;;;;;;;;;;;5045114;28;1208;-75
2022/08/19 06:00:39;;;;;;;;;;;;;;;;;;5066878;28;1474;-75
2022/08/19 06:03:06;;;;;;;;;;;;;;;;;;5067719;28;1490;-73
2022/08/19 06:05:32;;;;;;;;;;;;;;;;;;5062824;28;1740;-74
2022/08/19 06:07:59;;;;;;;;;;;;;;;;;;5060146;28;1987;-72
2022/08/19 06:10:26;;;;;;;;;;;;;;;;;;5053479;28;1329;-73
2022/08/19 06:12:52;;;;;;;;;;;;;;;;;;5070342;28;1756;-72
2022/08/19 06:15:21;;;;;;;;;;;;;;;;;;5070804;28;1494;-73
2022/08/19 06:17:48;;;;;;;;;;;;;;;;;;5069236;28;1864;-73
2022/08/19 06:20:15;;;;;;;;;;;;;;;;;;5070702;28;1083;-72
2022/08/19 06:22:41;;;;;;;;;;;;;;;;;;5063139;28;1760;-73
2022/08/19 06:25:08;;;;;;;;;;;;;;;;;;5068733;28;1379;-72
2022/08/19 06:27:35;;;;;;;;;;;;;;;;;;5069486;28;1977;-73
2022/08/19 06:30:01;;;;;;;;;;;;;;;;;;5051591;28;1761;-72
2022/08/19 06:32:29;;;;;;;;;;;;;;;;;;5054545;28;1503;-72
2022/08/19 06:34:55;;;;;;;;;;;;;;;;;;5072244;28;1509;-72
2022/08/19 06:37:22;;;;;;;;;;;;;;;;;;5083725;28;1392;-73
2022/08/19 06:39:48;;;;;;;;;;;;;;;;;;5070696;28;1119;-73
2022/08/19 06:42:16;;;;;;;;;;;;;;;;;;5069683;28;1768;-73
2022/08/19 06:44:42;;;;;;;;;;;;;;;;;;5053076;28;1357;-73
2022/08/19 06:47:09;;;;;;;;;;;;;;;;;;5064668;28;1554;-72
2022/08/19 06:49:37;;;;;;;;;;;;;;;;;;5049422;28;1985;-72
2022/08/19 06:52:03;;;;;;;;;;;;;;;;;;5068410;28;1210;-73
2022/08/19 06:54:30;;;;;;;;;;;;;;;;;;5070970;28;1388;-73
2022/08/19 06:56:56;;;;;;;;;;;;;;;;;;5070987;28;1059;-72
2022/08/19 06:59:26;;;;;;;;;;;;;;;;;;5071991;28;1087;-73
2022/08/19 07:01:53;;;;;;;;;;;;;;;;;;5052335;28;1128;-73
2022/08/19 07:04:20;;;;;;;;;;;;;;;;;;5070537;28;1119;-73
2022/08/19 07:06:47;;;;;;;;;;;;;;;;;;5052510;28;1423;-71
2022/08/19 07:09:15;;;;;;;;;;;;;;;;;;5068562;28;1930;-72
2022/08/19 07:11:44;;;;;;;;;;;;;;;;;;5062905;28;1475;-72
2022/08/19 07:14:10;;;;;;;;;;;;;;;;;;5068365;28;1130;-71
2022/08/19 07:16:36;;;;;;;;;;;;;;;;;;5068532;28;1768;-73
2022/08/19 07:19:02;;;;;;;;;;;;;;;;;;5067669;28;1812;-73
2022/08/19 07:21:29;;;;;;;;;;;;;;;;;;5068489;28;1779;-73
2022/08/19 07:23:57;;;;;;;;;;;;;;;;;;5069577;28;1804;-73
2022/08/19 07:26:24;;;;;;;;;;;;;;;;;;5070436;28;1352;-74
2022/08/19 07:28:50;;;;;;;;;;;;;;;;;;5051824;28;1973;-73
2022/08/19 07:31:18;;;;;;;;;;;;;;;;;;5061763;28;1205;-73
2022/08/19 07:33:45;;;;;;;;;;;;;;;;;;5070857;28;1071;-72
2022/08/19 07:36:12;;;;;;;;;;;;;;;;;;5052577;28;1403;-73
2022/08/19 07:38:39;;;;;;;;;;;;;;;;;;5069679;28;1787;-73
2022/08/19 07:41:07;;;;;;;;;;;;;;;;;;5058843;28;1713;-73
2022/08/19 07:43:33;;;;;;;;;;;;;;;;;;5052234;28;1198;-73
2022/08/19 07:45:59;;;;;;;;;;;;;;;;;;5070016;28;1270;-73
2022/08/19 07:48:25;;;;;;;;;;;;;;;;;;5070413;28;1964;-73
2022/08/19 07:50:52;;;;;;;;;;;;;;;;;;5068640;28;1771;-73
2022/08/19 07:53:19;;;;;;;;;;;;;;;;;;5043287;28;1574;-73
2022/08/19 07:55:45;;;;;;;;;;;;;;;;;;5048452;28;1484;-74
2022/08/19 07:58:13;;;;;;;;;;;;;;;;;;5052007;28;1358;-73
2022/08/19 08:00:40;;;;;;;;;;;;;;;;;;5070512;28;1130;-73
2022/08/19 08:03:06;;;;;;;;;;;;;;;;;;5063194;28;1632;-73
2022/08/19 08:11:12;;;;;;;;;;;;;;;;;;5048371;28;1823;-73
2022/08/19 08:13:40;;;;;;;;;;;;;;;;;;5063721;28;1788;-73
2022/08/19 08:16:07;;;;;;;;;;;;;;;;;;5065355;28;1497;-73
2022/08/19 08:18:41;;;;;;;;;;;;;;;;;;5067758;28;1564;-73
2022/08/19 08:21:07;;;;;;;;;;;;;;;;;;5073378;28;1298;-73
2022/08/19 08:23:33;;;;;;;;;;;;;;;;;;5073532;28;1083;-73
2022/08/19 08:26:00;;;;;;;;;;;;;;;;;;5055834;28;1421;-73
2022/08/19 08:28:27;;;;;;;;;;;;;;;;;;5053927;28;1910;-73
2022/08/19 08:30:55;;;;;;;;;;;;;;;;;;5065200;28;1130;-73
2022/08/19 08:33:22;;;;;;;;;;;;;;;;;;5053214;28;810;-72
2022/08/19 08:35:48;;;;;;;;;;;;;;;;;;5060135;28;1764;-73
2022/08/19 08:38:15;;;;;;;;;;;;;;;;;;5073259;28;1218;-73
2022/08/19 08:40:44;;;;;;;;;;;;;;;;;;5073236;28;1127;-73
2022/08/19 08:43:14;;;;;;;;;;;;;;;;;;5055804;28;1491;-73
2022/08/19 08:45:42;;;;;;;;;;;;;;;;;;5070895;28;1677;-73
2022/08/19 08:48:14;;;;;;;;;;;;;;;;;;5070749;28;1918;-74
2022/08/19 08:50:41;;;;;;;;;;;;;;;;;;5068005;28;1155;-74
2022/08/19 08:53:08;;;;;;;;;;;;;;;;;;5054946;28;949;-74
2022/08/19 08:55:34;;;;;;;;;;;;;;;;;;5071875;28;1759;-73
2022/08/19 08:58:01;;;;;;;;;;;;;;;;;;5051539;28;1587;-73
2022/08/19 09:00:28;;;;;;;;;;;;;;;;;;5071968;28;965;-73
2022/08/19 09:02:55;;;;;;;;;;;;;;;;;;5072485;28;1102;-74
2022/08/19 09:05:22;;;;;;;;;;;;;;;;;;5062447;28;1898;-73
2022/08/19 09:07:51;;;;;;;;;;;;;;;;;;5071788;28;1475;-74
2022/08/19 09:10:18;;;;;;;;;;;;;;;;;;5051298;28;1983;-73
2022/08/19 09:12:45;;;;;;;;;;;;;;;;;;5034321;28;1784;-73
2022/08/19 09:15:12;;;;;;;;;;;;;;;;;;5063954;28;1517;-72
2022/08/19 09:17:39;;;;;;;;;;;;;;;;;;5072317;28;1078;-73
2022/08/19 09:20:08;;;;;;;;;;;;;;;;;;5072797;28;1091;-73
2022/08/19 09:22:36;;;;;;;;;;;;;;;;;;5049973;28;1761;-73
2022/08/19 09:25:04;;;;;;;;;;;;;;;;;;5069797;28;1461;-73
2022/08/19 09:27:31;;;;;;;;;;;;;;;;;;5070215;28;1063;-73
2022/08/19 09:29:57;;;;;;;;;;;;;;;;;;5066593;28;1979;-73
2022/08/19 09:32:27;;;;;;;;;;;;;;;;;;5070220;28;1017;-73
2022/08/19 09:34:54;;;;;;;;;;;;;;;;;;5063838;28;1756;-73
2022/08/19 09:37:20;;;;;;;;;;;;;;;;;;5062643;28;1757;-73
2022/08/19 09:39:48;;;;;;;;;;;;;;;;;;5066529;28;1598;-73
2022/08/19 09:42:14;;;;;;;;;;;;;;;;;;5070602;28;1530;-73
2022/08/19 09:44:40;;;;;;;;;;;;;;;;;;5063965;28;1637;-73
2022/08/19 09:47:07;;;;;;;;;;;;;;;;;;5071711;28;1198;-73
2022/08/19 09:49:33;;;;;;;;;;;;;;;;;;5071967;28;1975;-73
2022/08/19 09:52:00;;;;;;;;;;;;;;;;;;5053460;28;1149;-72
2022/08/19 09:54:26;;;;;;;;;;;;;;;;;;5071950;28;1072;-73
2022/08/19 09:56:54;;;;;;;;;;;;;;;;;;5053647;28;1366;-73
2022/08/19 09:59:20;;;;;;;;;;;;;;;;;;5071872;28;786;-73
2022/08/19 10:01:46;;;;;;;;;;;;;;;;;;5071477;28;1087;-73
2022/08/19 10:04:12;;;;;;;;;;;;;;;;;;5071999;28;944;-73
2022/08/19 10:06:41;;;;;;;;;;;;;;;;;;5072841;28;1538;-74
2022/08/19 10:09:08;;;;;;;;;;;;;;;;;;5087476;28;1922;-73
2022/08/19 10:11:34;;;;;;;;;;;;;;;;;;5091206;28;838;-73
2022/08/19 10:14:02;;;;;;;;;;;;;;;;;;5052479;28;1526;-74
2022/08/19 10:16:28;;;;;;;;;;;;;;;;;;5066348;28;1386;-74
2022/08/19 10:18:54;;;;;;;;;;;;;;;;;;5062598;28;1215;-73
2022/08/19 10:21:21;;;;;;;;;;;;;;;;;;5051236;28;790;-74
2022/08/19 10:23:49;;;;;;;;;;;;;;;;;;5051157;28;1063;-74
2022/08/19 10:26:16;;;;;;;;;;;;;;;;;;5066385;28;1500;-74
2022/08/19 10:28:42;;;;;;;;;;;;;;;;;;5053309;28;1906;-74
2022/08/19 10:31:10;;;;;;;;;;;;;;;;;;5070951;28;1071;-74
2022/08/19 10:33:37;;;;;;;;;;;;;;;;;;5070176;28;1393;-73
2022/08/19 10:36:04;;;;;;;;;;;;;;;;;;5069962;28;1390;-73
2022/08/19 10:38:31;;;;;;;;;;;;;;;;;;5063713;28;1603;-74
2022/08/19 10:40:57;;;;;;;;;;;;;;;;;;5059054;28;1435;-74
2022/08/19 10:43:24;;;;;;;;;;;;;;;;;;5067044;28;1388;-73
2022/08/19 10:45:52;;;;;;;;;;;;;;;;;;5060168;28;1527;-74
2022/08/19 10:48:20;;;;;;;;;;;;;;;;;;5038960;28;1369;-72
2022/08/19 10:53:30;;;;;;;;;;;;;;;;;;5051060;28;1460;-73
2022/08/19 10:58:41;;;;;;;;;;;;;;;;;;5064982;28;1103;-73
2022/08/19 11:01:07;;;;;;;;;;;;;;;;;;5054267;28;1380;-74
2022/08/19 11:03:35;;;;;;;;;;;;;;;;;;5067565;28;1194;-73
2022/08/19 11:06:01;;;;;;;;;;;;;;;;;;5067407;28;1521;-73
2022/08/19 11:08:27;;;;;;;;;;;;;;;;;;5070169;28;1241;-73
2022/08/19 11:10:58;;;;;;;;;;;;;;;;;;5069134;28;1975;-73
2022/08/19 11:13:25;;;;;;;;;;;;;;;;;;5065152;28;1392;-73
2022/08/19 11:15:57;;;;;;;;;;;;;;;;;;5058065;28;1488;-73
2022/08/19 11:18:23;;;;;;;;;;;;;;;;;;5059420;28;1395;-73
2022/08/19 11:20:50;;;;;;;;;;;;;;;;;;5046467;28;1602;-73
2022/08/19 11:23:16;;;;;;;;;;;;;;;;;;5062295;28;1415;-73
2022/08/19 11:25:43;;;;;;;;;;;;;;;;;;5047438;28;1524;-74
2022/08/19 11:28:09;;;;;;;;;;;;;;;;;;5066170;28;1470;-74
2022/08/19 11:30:35;;;;;;;;;;;;;;;;;;5069999;28;1961;-73
2022/08/19 11:33:02;;;;;;;;;;;;;;;;;;5049718;28;1416;-73
2022/08/19 11:35:28;;;;;;;;;;;;;;;;;;5050693;28;1387;-74
2022/08/19 11:37:57;;;;;;;;;;;;;;;;;;5068537;28;1537;-74
2022/08/19 11:40:24;;;;;;;;;;;;;;;;;;5067571;28;1014;-73
2022/08/19 11:42:56;;;;;;;;;;;;;;;;;;5051435;28;1181;-72
2022/08/19 11:45:22;;;;;;;;;;;;;;;;;;5050263;28;1511;-73
2022/08/19 11:47:49;;;;;;;;;;;;;;;;;;5060865;28;1494;-73
2022/08/19 11:50:15;;;;;;;;;;;;;;;;;;5069959;28;2001;-72
2022/08/19 11:52:41;;;;;;;;;;;;;;;;;;5055611;28;1167;-73
2022/08/19 11:55:09;;;;;;;;;;;;;;;;;;5072871;28;1416;-73
2022/08/19 11:57:35;;;;;;;;;;;;;;;;;;5073935;28;1201;-73
2022/08/19 12:00:02;;;;;;;;;;;;;;;;;;5073697;28;1063;-73
2022/08/19 12:02:31;;;;;;;;;;;;;;;;;;5073294;28;1037;-73
2022/08/19 12:04:57;;;;;;;;;;;;;;;;;;5072923;28;1497;-73
2022/08/19 12:07:24;;;;;;;;;;;;;;;;;;5055742;28;1298;-73
2022/08/19 12:09:50;;;;;;;;;;;;;;;;;;5072945;28;1981;-73
2022/08/19 12:12:18;;;;;;;;;;;;;;;;;;5073685;28;853;-73
2022/08/19 12:14:46;;;;;;;;;;;;;;;;;;5056808;28;1509;-73
2022/08/19 12:17:13;;;;;;;;;;;;;;;;;;5071881;28;1546;-73
2022/08/19 12:19:39;;;;;;;;;;;;;;;;;;5071005;28;1448;-73
2022/08/19 12:22:07;;;;;;;;;;;;;;;;;;5076601;28;1190;-73
2022/08/19 12:24:33;;;;;;;;;;;;;;;;;;5073453;28;1322;-72
2022/08/19 12:27:01;;;;;;;;;;;;;;;;;;5053504;28;1364;-72
2022/08/19 12:29:29;;;;;;;;;;;;;;;;;;5062568;28;1918;-73
2022/08/19 12:32:00;;;;;;;;;;;;;;;;;;5068511;28;1471;-73
2022/08/19 12:34:29;;;;;;;;;;;;;;;;;;5072326;28;1873;-73
2022/08/19 12:36:55;;;;;;;;;;;;;;;;;;5071760;28;1404;-73
2022/08/19 12:39:21;;;;;;;;;;;;;;;;;;5072931;28;1075;-73
2022/08/19 12:41:48;;;;;;;;;;;;;;;;;;5071961;28;1100;-73
2022/08/19 12:44:15;;;;;;;;;;;;;;;;;;5073103;28;898;-73
2022/08/19 12:46:42;;;;;;;;;;;;;;;;;;5054796;28;1499;-72
2022/08/19 12:49:09;;;;;;;;;;;;;;;;;;5072034;28;1977;-73
2022/08/19 12:51:36;;;;;;;;;;;;;;;;;;5063719;28;1412;-73
2022/08/19 12:54:02;;;;;;;;;;;;;;;;;;5072523;28;1155;-73
2022/08/19 12:56:28;;;;;;;;;;;;;;;;;;5053823;28;1409;-73
2022/08/19 12:58:54;;;;;;;;;;;;;;;;;;5071821;28;1162;-73
2022/08/19 13:01:21;;;;;;;;;;;;;;;;;;5065639;28;1063;-73
2022/08/19 13:03:48;;;;;;;;;;;;;;;;;;5052340;28;885;-73
2022/08/19 13:06:15;;;;;;;;;;;;;;;;;;5070068;28;1539;-73
2022/08/19 13:08:41;;;;;;;;;;;;;;;;;;5071507;28;1700;-73
2022/08/19 13:11:08;;;;;;;;;;;;;;;;;;5054225;28;1905;-73
2022/08/19 13:13:34;;;;;;;;;;;;;;;;;;5072147;28;1388;-74
2022/08/19 13:16:02;;;;;;;;;;;;;;;;;;5070279;28;1502;-74
2022/08/19 13:18:28;;;;;;;;;;;;;;;;;;5071772;28;1284;-74
2022/08/19 13:20:56;;;;;;;;;;;;;;;;;;5068582;28;1017;-73
2022/08/19 13:23:22;;;;;;;;;;;;;;;;;;5053637;28;1041;-73
2022/08/19 13:25:56;;;;;;;;;;;;;;;;;;5071023;28;1415;-73
2022/08/19 13:28:22;;;;;;;;;;;;;;;;;;5053179;28;1067;-74
2022/08/19 13:33:33;;;;;;;;;;;;;;;;;;5052933;28;1158;-74
2022/08/19 13:36:01;;;;;;;;;;;;;;;;;;5054202;28;1388;-73
2022/08/19 13:38:27;;;;;;;;;;;;;;;;;;5070938;28;1511;-73
2022/08/19 13:40:55;;;;;;;;;;;;;;;;;;5071728;28;1194;-74
2022/08/19 13:43:22;;;;;;;;;;;;;;;;;;5070456;28;1252;-74
2022/08/19 13:45:49;;;;;;;;;;;;;;;;;;5039801;28;1702;-73
2022/08/19 13:48:15;;;;;;;;;;;;;;;;;;5069718;28;1507;-73
2022/08/19 13:50:44;;;;;;;;;;;;;;;;;;5071217;28;1975;-73
2022/08/19 13:53:11;;;;;;;;;;;;;;;;;;5052566;28;1459;-73
2022/08/19 13:55:38;;;;;;;;;;;;;;;;;;5069972;28;1474;-73
2022/08/19 13:58:04;;;;;;;;;;;;;;;;;;5068103;28;1436;-72
2022/08/19 14:00:32;;;;;;;;;;;;;;;;;;5071610;28;1197;-73
2022/08/19 14:02:58;;;;;;;;;;;;;;;;;;5070963;28;1114;-73
2022/08/19 14:05:25;;;;;;;;;;;;;;;;;;5071068;28;1333;-73
2022/08/19 14:07:51;;;;;;;;;;;;;;;;;;5071250;28;1127;-73
2022/08/19 14:10:19;;;;;;;;;;;;;;;;;;5051600;28;1985;-72
2022/08/19 14:12:46;;;;;;;;;;;;;;;;;;5056106;28;1465;-72
2022/08/19 14:15:12;;;;;;;;;;;;;;;;;;5059943;28;1475;-72
2022/08/19 14:17:38;;;;;;;;;;;;;;;;;;5064297;28;1712;-72
2022/08/19 14:20:07;;;;;;;;;;;;;;;;;;5085689;22;3648;-76
2022/08/19 14:22:34;;;;;;;;;;;;;;;;;;5085072;28;1608;-76
2022/08/19 14:25:00;;;;;;;;;;;;;;;;;;5091365;28;924;-75
2022/08/19 14:27:27;;;;;;;;;;;;;;;;;;5088715;28;1601;-76
2022/08/19 14:29:54;;;;;;;;;;;;;;;;;;5080999;28;1963;-75
2022/08/19 14:32:21;;;;;;;;;;;;;;;;;;5074759;28;1415;-74
2022/08/19 14:34:47;;;;;;;;;;;;;;;;;;5079304;28;1205;-76
2022/08/19 14:37:14;;;;;;;;;;;;;;;;;;5071042;28;968;-79
2022/08/19 14:39:40;;;;;;;;;;;;;;;;;;5071094;28;1328;-75
2022/08/19 14:42:08;;;;;;;;;;;;;;;;;;5076647;28;1589;-75
2022/08/19 14:44:35;;;;;;;;;;;;;;;;;;5085111;28;1569;-75
2022/08/19 14:47:01;;;;;;;;;;;;;;;;;;5090884;28;1118;-75
2022/08/19 14:49:28;;;;;;;;;;;;;;;;;;5084775;28;1505;-75
2022/08/19 14:51:54;;;;;;;;;;;;;;;;;;5073712;28;1973;-74
2022/08/19 14:54:21;;;;;;;;;;;;;;;;;;5071755;28;1419;-76
2022/08/19 14:56:48;;;;;;;;;;;;;;;;;;5085680;28;1609;-79
2022/08/19 14:59:15;;;;;;;;;;;;;;;;;;5079299;28;1360;-76
2022/08/19 15:01:42;;;;;;;;;;;;;;;;;;5073389;28;1682;-74
2022/08/19 15:04:09;;;;;;;;;;;;;;;;;;5083231;28;1478;-75
2022/08/19 15:06:35;;;;;;;;;;;;;;;;;;5073276;28;1430;-75
2022/08/19 15:09:02;;;;;;;;;;;;;;;;;;5071869;28;1399;-75
2022/08/19 15:11:28;;;;;;;;;;;;;;;;;;5073600;28;1910;-76
2022/08/19 15:13:55;;;;;;;;;;;;;;;;;;5066200;28;1415;-78
2022/08/19 15:16:21;;;;;;;;;;;;;;;;;;5076195;28;1597;-75
2022/08/19 15:18:50;;;;;;;;;;;;;;;;;;5070275;28;865;-74
2022/08/19 15:21:17;;;;;;;;;;;;;;;;;;5078447;28;1466;-74
2022/08/19 15:23:43;;;;;;;;;;;;;;;;;;5080395;28;1446;-75
2022/08/19 15:26:10;;;;;;;;;;;;;;;;;;5075099;28;1358;-74
2022/08/19 15:28:36;;;;;;;;;;;;;;;;;;5078503;28;1391;-75
2022/08/19 15:31:02;;;;;;;;;;;;;;;;;;5089684;28;1905;-74
2022/08/19 15:33:29;;;;;;;;;;;;;;;;;;5086242;28;1466;-74
2022/08/19 15:35:57;;;;;;;;;;;;;;;;;;5081724;28;1615;-75
2022/08/19 15:38:24;;;;;;;;;;;;;;;;;;5085643;28;1581;-75
2022/08/19 15:40:51;;;;;;;;;;;;;;;;;;5076962;28;1286;-75
2022/08/19 15:43:20;;;;;;;;;;;;;;;;;;5081828;28;1426;-73
2022/08/19 15:45:46;;;;;;;;;;;;;;;;;;5089951;28;1437;-76
2022/08/19 15:48:12;;;;;;;;;;;;;;;;;;5083586;28;1248;-75
2022/08/19 15:50:38;;;;;;;;;;;;;;;;;;5056093;28;1975;-74
2022/08/19 15:53:07;;;;;;;;;;;;;;;;;;5083015;28;1438;-74
2022/08/19 15:55:33;;;;;;;;;;;;;;;;;;5086515;28;1378;-76
2022/08/19 16:06:27;;;;;;;;;;;;;;;;;;5089563;28;1600;-75
2022/08/19 16:08:54;;;;;;;;;;;;;;;;;;5085239;28;1593;-74
2022/08/19 16:11:21;;;;;;;;;;;;;;;;;;5079032;28;1926;-78
2022/08/19 16:13:48;;;;;;;;;;;;;;;;;;5077231;28;1546;-75
2022/08/19 16:16:14;;;;;;;;;;;;;;;;;;5076347;28;1572;-73
2022/08/19 16:18:40;;;;;;;;;;;;;;;;;;5081716;28;1810;-74
2022/08/19 16:21:07;;;;;;;;;;;;;;;;;;5079404;28;1656;-75
2022/08/19 16:23:33;;;;;;;;;;;;;;;;;;5082470;28;1398;-74
2022/08/19 16:26:01;;;;;;;;;;;;;;;;;;5060943;28;1573;-76
2022/08/19 16:28:27;;;;;;;;;;;;;;;;;;5075516;28;1257;-74
2022/08/19 16:30:53;;;;;;;;;;;;;;;;;;5088408;28;1902;-74
2022/08/19 16:33:19;;;;;;;;;;;;;;;;;;5081417;28;1628;-75
2022/08/19 16:35:46;;;;;;;;;;;;;;;;;;5083611;28;1287;-74
2022/08/19 16:38:12;;;;;;;;;;;;;;;;;;5071642;28;1057;-73
2022/08/19 16:40:38;;;;;;;;;;;;;;;;;;5072209;28;1735;-74
2022/08/19 16:43:07;;;;;;;;;;;;;;;;;;5078728;28;1470;-75
2022/08/19 16:45:33;;;;;;;;;;;;;;;;;;5079142;28;1517;-75
2022/08/19 16:47:59;;;;;;;;;;;;;;;;;;5086073;28;1656;-75
2022/08/19 16:50:25;;;;;;;;;;;;;;;;;;5085159;28;1977;-76
2022/08/19 16:52:51;;;;;;;;;;;;;;;;;;5089952;28;1102;-75
2022/08/19 16:55:20;;;;;;;;;;;;;;;;;;5091452;28;1088;-73
2022/08/19 16:57:46;;;;;;;;;;;;;;;;;;5090567;28;1747;-77
2022/08/19 17:00:14;;;;;;;;;;;;;;;;;;5063372;28;1432;-76
2022/08/19 17:02:40;;;;;;;;;;;;;;;;;;5079071;28;1122;-74
2022/08/19 17:05:07;;;;;;;;;;;;;;;;;;5070846;28;881;-74
2022/08/19 17:07:34;;;;;;;;;;;;;;;;;;5060634;28;1780;-73
2022/08/19 17:10:00;;;;;;;;;;;;;;;;;;5081402;28;1404;-76
2022/08/19 17:12:27;;;;;;;;;;;;;;;;;;5087337;28;1995;-76
2022/08/19 17:14:54;;;;;;;;;;;;;;;;;;5073466;28;962;-75
2022/08/19 17:17:22;;;;;;;;;;;;;;;;;;5053249;28;1163;-77
2022/08/19 17:19:48;;;;;;;;;;;;;;;;;;5070997;28;1436;-74
2022/08/19 17:22:14;;;;;;;;;;;;;;;;;;5070403;28;863;-74
2022/08/19 17:24:41;;;;;;;;;;;;;;;;;;5081214;28;1554;-75
2022/08/19 17:27:07;;;;;;;;;;;;;;;;;;5072943;28;1045;-74
2022/08/19 17:29:34;;;;;;;;;;;;;;;;;;5083357;28;1533;-80
2022/08/19 17:32:00;;;;;;;;;;;;;;;;;;5087184;28;1977;-78
2022/08/19 17:34:27;;;;;;;;;;;;;;;;;;5080806;28;1434;-78